createdAt,value
2022-10-12T00:02:27.200Z,9.00
2022-10-12T00:04:54.367Z,7.80
2022-10-12T00:07:21.604Z,8.57
2022-10-12T00:09:48.696Z,6.82
2022-10-12T00:12:15.975Z,9.35
2022-10-12T00:14:43.288Z,11.63
2022-10-12T00:17:10.432Z,9.15
2022-10-12T00:19:37.675Z,7.15
2022-10-12T00:22:04.898Z,8.70
2022-10-12T00:24:32.243Z,6.55
2022-10-12T00:26:59.590Z,6.65
2022-10-12T00:29:26.737Z,8.20
2022-10-12T00:31:54.244Z,11.05
2022-10-12T00:34:21.421Z,7.45
2022-10-12T00:36:48.822Z,6.25
2022-10-12T00:39:15.986Z,7.13
2022-10-12T00:41:44.721Z,4.55
2022-10-12T00:44:46.740Z,4.35
2022-10-12T00:47:43.504Z,9.43
2022-10-12T00:50:25.866Z,6.63
2022-10-12T00:53:06.553Z,10.93
2022-10-12T00:55:38.848Z,8.32
2022-10-12T00:58:08.651Z,4.70
2022-10-12T01:00:38.984Z,5.95
2022-10-12T01:03:09.040Z,9.70
2022-10-12T01:05:39.749Z,8.50
2022-10-12T01:08:07.323Z,4.43
2022-10-12T01:10:34.490Z,4.80
2022-10-12T01:13:02.305Z,8.07
2022-10-12T01:15:36.632Z,10.38
2022-10-12T01:20:49.456Z,8.18
2022-10-12T01:23:18.674Z,6.45
2022-10-12T01:26:00.937Z,5.57
2022-10-12T01:28:33.979Z,5.40
2022-10-12T01:31:28.817Z,6.47
2022-10-12T01:34:09.594Z,6.07
2022-10-12T01:36:41.356Z,7.10
2022-10-12T01:39:28.639Z,10.00
2022-10-12T01:42:03.258Z,12.30
2022-10-12T01:44:32.796Z,7.53
2022-10-12T01:47:01.956Z,8.85
2022-10-12T01:49:33.198Z,6.78
2022-10-12T01:52:35.029Z,6.47
2022-10-12T01:55:17.771Z,6.88
2022-10-12T01:57:51.364Z,10.30
2022-10-12T02:00:18.912Z,8.05
2022-10-12T02:03:04.553Z,9.52
2022-10-12T02:06:03.941Z,5.35
2022-10-12T02:08:41.077Z,5.75
2022-10-12T02:11:17.554Z,6.57
2022-10-12T02:14:16.911Z,6.82
2022-10-12T02:17:09.320Z,6.43
2022-10-12T02:19:58.030Z,5.70
2022-10-12T02:22:37.544Z,7.03
2022-10-12T02:25:09.493Z,6.80
2022-10-12T02:27:39.216Z,8.25
2022-10-12T02:30:08.309Z,9.90
2022-10-12T02:32:51.887Z,9.20
2022-10-12T02:35:23.321Z,9.02
2022-10-12T02:38:11.567Z,12.38
2022-10-12T02:40:47.803Z,6.63
2022-10-12T02:43:40.506Z,7.45
2022-10-12T02:46:10.632Z,9.73
2022-10-12T02:48:40.643Z,6.13
2022-10-12T02:51:09.920Z,3.83
2022-10-12T02:53:37.677Z,6.32
2022-10-12T02:56:08.678Z,8.80
2022-10-12T02:58:37.524Z,4.28
2022-10-12T03:01:05.448Z,20.38
2022-10-12T03:03:32.791Z,12.68
2022-10-12T03:05:59.971Z,6.30
2022-10-12T03:08:26.992Z,3.75
2022-10-12T03:10:54.237Z,9.63
2022-10-12T03:13:21.500Z,5.65
2022-10-12T03:15:48.752Z,11.88
2022-10-12T03:18:15.853Z,7.60
2022-10-12T03:20:42.934Z,6.38
2022-10-12T03:23:10.052Z,7.63
2022-10-12T03:25:37.325Z,9.18
2022-10-12T03:28:04.600Z,12.02
2022-10-12T03:30:31.816Z,11.45
2022-10-12T03:32:59.417Z,7.05
2022-10-12T03:35:26.915Z,5.57
2022-10-12T03:37:54.063Z,12.05
2022-10-12T03:40:21.374Z,5.85
2022-10-12T03:42:48.569Z,7.55
2022-10-12T03:45:15.757Z,7.47
2022-10-12T03:47:42.961Z,9.35
2022-10-12T03:50:10.409Z,7.45
2022-10-12T03:52:37.624Z,6.65
2022-10-12T03:55:05.151Z,6.72
2022-10-12T03:57:32.478Z,7.90
2022-10-12T03:59:59.724Z,6.70
2022-10-12T04:02:26.802Z,9.23
2022-10-12T04:04:54.674Z,4.72
2022-10-12T04:07:22.306Z,4.05
2022-10-12T04:09:49.518Z,4.53
2022-10-12T04:12:16.771Z,10.43
2022-10-12T04:14:44.045Z,6.35
2022-10-12T04:17:11.842Z,8.43
2022-10-12T04:19:39.137Z,3.42
2022-10-12T04:22:06.521Z,7.05
2022-10-12T04:24:33.789Z,8.70
2022-10-12T04:27:00.999Z,7.65
2022-10-12T04:29:28.280Z,8.38
2022-10-12T04:31:55.468Z,8.65
2022-10-12T04:34:22.779Z,5.50
2022-10-12T04:36:50.334Z,8.60
2022-10-12T04:39:17.499Z,5.85
2022-10-12T04:41:44.535Z,6.65
2022-10-12T04:44:11.763Z,5.22
2022-10-12T04:46:38.994Z,5.30
2022-10-12T04:49:06.387Z,4.43
2022-10-12T04:51:33.514Z,6.78
2022-10-12T04:54:00.742Z,6.72
2022-10-12T04:56:27.908Z,8.20
2022-10-12T04:58:55.173Z,8.25
2022-10-12T05:01:22.579Z,6.03
2022-10-12T05:03:49.783Z,7.90
2022-10-12T05:06:16.926Z,6.45
2022-10-12T05:08:44.286Z,11.23
2022-10-12T05:11:11.510Z,9.52
2022-10-12T05:13:38.852Z,6.45
2022-10-12T05:16:06.205Z,4.50
2022-10-12T05:18:33.447Z,12.70
2022-10-12T05:21:00.678Z,7.57
2022-10-12T05:23:27.936Z,7.40
2022-10-12T05:25:56.548Z,5.07
2022-10-12T05:28:24.112Z,9.27
2022-10-12T05:30:54.320Z,9.38
2022-10-12T05:33:21.603Z,7.88
2022-10-12T05:35:53.375Z,5.80
2022-10-12T05:38:23.467Z,6.97
2022-10-12T05:40:50.582Z,6.70
2022-10-12T05:43:17.714Z,7.55
2022-10-12T05:45:44.985Z,7.25
2022-10-12T05:48:12.177Z,9.20
2022-10-12T05:50:39.480Z,8.32
2022-10-12T05:53:06.825Z,8.80
2022-10-12T05:55:34.146Z,6.72
2022-10-12T05:58:01.424Z,6.85
2022-10-12T06:00:28.809Z,5.97
2022-10-12T06:02:56.319Z,5.85
2022-10-12T06:05:23.422Z,9.40
2022-10-12T06:07:50.589Z,8.93
2022-10-12T06:10:17.753Z,9.15
2022-10-12T06:12:44.942Z,4.53
2022-10-12T06:15:12.022Z,6.95
2022-10-12T06:17:39.241Z,10.38
2022-10-12T06:20:06.995Z,5.72
2022-10-12T06:22:34.274Z,6.40
2022-10-12T06:25:01.523Z,7.63
2022-10-12T06:27:28.678Z,8.00
2022-10-12T06:29:55.971Z,7.28
2022-10-12T06:32:23.124Z,9.20
2022-10-12T06:34:50.298Z,4.70
2022-10-12T06:37:44.321Z,10.68
2022-10-12T06:40:05.944Z,4.75
2022-10-12T06:42:33.408Z,8.20
2022-10-12T06:45:00.554Z,8.20
2022-10-12T06:47:27.704Z,10.57
2022-10-12T06:49:54.904Z,5.63
2022-10-12T06:52:22.160Z,11.18
2022-10-12T06:54:49.312Z,6.55
2022-10-12T06:57:16.573Z,12.07
2022-10-12T06:59:43.727Z,6.22
2022-10-12T07:02:12.088Z,6.70
2022-10-12T07:04:39.349Z,8.75
2022-10-12T07:07:06.727Z,4.35
2022-10-12T07:09:33.904Z,8.98
2022-10-12T07:12:01.102Z,5.20
2022-10-12T07:14:28.554Z,5.68
2022-10-12T07:16:55.770Z,7.07
2022-10-12T07:19:23.011Z,9.50
2022-10-12T07:21:50.169Z,8.40
2022-10-12T07:24:17.507Z,7.25
2022-10-12T07:26:44.972Z,7.50
2022-10-12T07:29:12.185Z,7.63
2022-10-12T07:31:39.387Z,5.78
2022-10-12T07:34:07.008Z,7.75
2022-10-12T07:36:57.487Z,6.30
2022-10-12T07:39:22.840Z,5.70
2022-10-12T07:41:50.786Z,7.65
2022-10-12T07:44:18.495Z,9.40
2022-10-12T07:46:46.365Z,4.57
2022-10-12T07:49:14.626Z,3.75
2022-10-12T07:51:42.710Z,5.53
2022-10-12T07:54:10.269Z,9.25
2022-10-12T07:56:37.578Z,8.52
2022-10-12T07:59:04.976Z,9.18
2022-10-12T08:01:33.492Z,5.47
2022-10-12T08:04:02.123Z,7.38
2022-10-12T08:06:32.896Z,8.13
2022-10-12T08:09:01.624Z,5.50
2022-10-12T08:11:29.378Z,8.52
2022-10-12T08:13:56.712Z,5.68
2022-10-12T08:16:24.164Z,11.32
2022-10-12T08:18:51.761Z,5.85
2022-10-12T08:21:19.667Z,7.55
2022-10-12T08:23:47.453Z,7.53
2022-10-12T08:26:15.914Z,6.28
2022-10-12T08:28:43.342Z,5.38
2022-10-12T08:31:19.942Z,7.10
2022-10-12T08:33:47.158Z,8.73
2022-10-12T08:36:14.606Z,10.57
2022-10-12T08:38:43.884Z,6.95
2022-10-12T08:41:21.748Z,5.07
2022-10-12T08:44:20.400Z,4.72
2022-10-12T08:46:48.322Z,6.82
2022-10-12T08:49:16.874Z,8.18
2022-10-12T08:51:56.665Z,11.57
2022-10-12T08:54:28.247Z,8.05
2022-10-12T08:56:56.243Z,8.38
2022-10-12T08:59:23.961Z,6.38
2022-10-12T09:01:57.041Z,6.28
2022-10-12T09:04:45.368Z,5.13
2022-10-12T09:07:27.568Z,8.93
2022-10-12T09:10:13.704Z,10.00
2022-10-12T09:12:52.564Z,8.50
2022-10-12T09:15:32.021Z,8.85
2022-10-12T09:18:01.478Z,10.82
2022-10-12T09:20:53.093Z,6.25
2022-10-12T09:23:25.598Z,5.32
2022-10-12T09:26:01.953Z,6.95
2022-10-12T09:28:39.432Z,8.80
2022-10-12T09:31:25.011Z,6.88
2022-10-12T09:33:54.408Z,7.70
2022-10-12T09:36:24.707Z,6.82
2022-10-12T09:38:52.603Z,9.77
2022-10-12T09:41:27.730Z,9.07
2022-10-12T09:43:59.363Z,9.88
2022-10-12T09:46:59.426Z,7.65
2022-10-12T09:49:40.728Z,7.05
2022-10-12T09:52:08.858Z,12.10
2022-10-12T09:54:39.867Z,9.52
2022-10-12T09:57:07.803Z,9.90
2022-10-12T09:59:43.741Z,8.48
2022-10-12T10:02:11.409Z,5.57
2022-10-12T10:04:40.880Z,8.60
2022-10-12T10:07:33.592Z,9.63
2022-10-12T10:10:12.818Z,7.20
2022-10-12T10:12:59.206Z,8.57
2022-10-12T10:15:35.057Z,9.18
2022-10-12T10:18:08.484Z,9.60
2022-10-12T10:20:35.560Z,10.27
2022-10-12T10:23:05.930Z,7.95
2022-10-12T10:25:34.583Z,8.70
2022-10-12T10:28:32.762Z,5.70
2022-10-12T10:31:03.105Z,7.90
2022-10-12T10:33:32.649Z,9.00
2022-10-12T10:36:26.593Z,8.23
2022-10-12T10:39:05.083Z,8.20
2022-10-12T10:41:41.607Z,8.30
2022-10-12T10:44:27.890Z,11.50
2022-10-12T10:46:57.868Z,8.50
2022-10-12T10:49:28.447Z,6.38
2022-10-12T10:51:58.151Z,7.28
2022-10-12T10:54:27.437Z,32.03
2022-10-12T10:57:18.534Z,46.55
2022-10-12T10:59:48.659Z,9.88
2022-10-12T11:02:30.829Z,11.13
2022-10-12T11:05:21.427Z,7.82
2022-10-12T11:07:50.799Z,8.68
2022-10-12T11:10:29.661Z,11.88
2022-10-12T11:13:12.723Z,8.43
2022-10-12T11:15:54.773Z,7.68
2022-10-12T11:18:44.403Z,8.30
2022-10-12T11:21:46.880Z,10.20
2022-10-12T11:24:36.424Z,6.15
2022-10-12T11:27:09.996Z,8.98
2022-10-12T11:29:38.577Z,6.20
2022-10-12T11:32:28.575Z,7.88
2022-10-12T11:35:02.647Z,7.40
2022-10-12T11:37:52.006Z,8.93
2022-10-12T11:43:24.749Z,8.00
2022-10-12T11:45:56.235Z,8.40
2022-10-12T11:48:32.049Z,5.10
2022-10-12T11:51:03.822Z,7.45
2022-10-12T11:53:51.922Z,6.40
2022-10-12T11:56:45.038Z,8.48
2022-10-12T11:59:43.343Z,4.32
2022-10-12T12:02:22.559Z,7.30
2022-10-12T12:04:50.785Z,6.38
2022-10-12T12:07:49.292Z,7.70
2022-10-12T12:10:30.734Z,5.53
2022-10-12T12:13:15.071Z,6.38
2022-10-12T12:18:20.241Z,5.97
2022-10-12T12:20:47.433Z,7.93
2022-10-12T12:23:29.365Z,7.28
2022-10-12T12:26:17.113Z,5.63
2022-10-12T12:28:47.143Z,6.80
2022-10-12T12:31:23.472Z,8.77
2022-10-12T12:34:03.983Z,5.18
2022-10-12T12:36:37.178Z,12.10
2022-10-12T12:39:08.391Z,9.15
2022-10-12T12:42:08.703Z,9.68
2022-10-12T12:44:41.860Z,7.43
2022-10-12T12:47:39.951Z,9.75
2022-10-12T12:50:02.293Z,7.10
2022-10-12T12:52:34.990Z,7.15
2022-10-12T12:55:40.628Z,9.57
2022-10-12T12:58:45.629Z,8.93
2022-10-12T13:01:32.172Z,8.52
2022-10-12T13:04:27.578Z,27.00
2022-10-12T13:07:03.770Z,8.40
2022-10-12T13:09:46.312Z,6.60
2022-10-12T13:12:55.055Z,8.05
2022-10-12T13:15:28.981Z,6.30
2022-10-12T13:18:45.988Z,9.20
2022-10-12T13:21:17.464Z,9.38
2022-10-12T13:23:49.244Z,8.38
2022-10-12T13:26:25.767Z,7.20
2022-10-12T13:28:54.254Z,11.98
2022-10-12T13:31:49.141Z,10.25
2022-10-12T13:37:10.132Z,10.00
2022-10-12T13:39:44.980Z,11.82
2022-10-12T13:42:29.676Z,10.85
2022-10-12T13:44:58.823Z,10.63
2022-10-12T13:47:32.490Z,10.95
2022-10-12T13:50:00.670Z,9.05
2022-10-12T13:52:33.284Z,6.47
2022-10-12T13:55:01.487Z,6.13
2022-10-12T13:57:32.122Z,10.45
2022-10-12T14:00:08.260Z,8.30
2022-10-12T14:02:35.323Z,9.88
2022-10-12T14:05:05.587Z,10.65
2022-10-12T14:07:40.846Z,8.05
2022-10-12T14:10:21.977Z,8.23
2022-10-12T14:12:54.408Z,9.73
2022-10-12T14:15:25.014Z,9.40
2022-10-12T14:17:52.762Z,8.90
2022-10-12T14:20:32.766Z,8.30
2022-10-12T14:23:02.281Z,6.28
2022-10-12T14:25:31.454Z,10.52
2022-10-12T14:28:05.057Z,9.05
2022-10-12T14:30:50.334Z,8.75
2022-10-12T14:33:17.393Z,10.35
2022-10-12T14:35:48.246Z,15.00
2022-10-12T14:38:33.825Z,7.55
2022-10-12T14:41:26.954Z,10.80
2022-10-12T14:44:13.671Z,9.27
2022-10-12T14:47:11.050Z,7.57
2022-10-12T14:49:38.198Z,11.60
2022-10-12T14:52:07.492Z,11.27
2022-10-12T14:54:34.741Z,11.88
2022-10-12T14:57:14.702Z,10.27
2022-10-12T14:59:42.421Z,16.30
2022-10-12T15:02:17.280Z,11.07
2022-10-12T15:04:44.981Z,11.40
2022-10-12T15:07:18.960Z,16.67
2022-10-12T15:09:46.542Z,9.80
2022-10-12T15:12:15.973Z,11.93
2022-10-12T15:14:43.876Z,9.35
2022-10-12T15:17:16.281Z,10.25
2022-10-12T15:19:44.498Z,12.57
2022-10-12T15:22:19.379Z,11.48
2022-10-12T15:24:47.296Z,11.07
2022-10-12T15:27:14.926Z,13.55
2022-10-12T15:29:42.749Z,13.32
2022-10-12T15:32:15.268Z,13.18
2022-10-12T15:34:42.854Z,10.90
2022-10-12T15:37:09.966Z,9.38
2022-10-12T15:39:37.439Z,10.93
2022-10-12T15:42:04.808Z,12.23
2022-10-12T15:44:31.980Z,11.88
2022-10-12T15:47:01.099Z,10.88
2022-10-12T15:49:28.289Z,10.13
2022-10-12T15:51:56.294Z,12.15
2022-10-12T15:54:23.447Z,10.55
2022-10-12T15:56:50.650Z,8.73
2022-10-12T15:59:17.881Z,13.10
2022-10-12T16:01:45.087Z,8.98
2022-10-12T16:04:15.459Z,13.77
2022-10-12T16:06:42.676Z,12.63
2022-10-12T16:09:10.300Z,8.23
2022-10-12T16:11:37.635Z,13.55
2022-10-12T16:14:04.777Z,9.07
2022-10-12T16:16:32.540Z,8.13
2022-10-12T16:18:59.713Z,14.70
2022-10-12T16:21:27.556Z,11.98
2022-10-12T16:23:54.782Z,10.07
2022-10-12T16:26:22.082Z,11.57
2022-10-12T16:28:49.463Z,12.40
2022-10-12T16:31:18.099Z,8.57
2022-10-12T16:33:45.807Z,11.90
2022-10-12T16:36:15.534Z,12.75
2022-10-12T16:38:44.053Z,12.90
2022-10-12T16:41:13.923Z,12.45
2022-10-12T16:43:41.385Z,15.15
2022-10-12T16:46:08.764Z,11.15
2022-10-12T16:48:36.736Z,11.23
2022-10-12T16:51:11.563Z,12.10
2022-10-12T16:53:39.202Z,8.32
2022-10-12T16:56:06.687Z,10.38
2022-10-12T16:58:33.974Z,14.07
2022-10-12T17:01:12.246Z,18.20
2022-10-12T17:03:39.566Z,14.80
2022-10-12T17:06:07.261Z,10.07
2022-10-12T17:08:35.813Z,13.65
2022-10-12T17:11:08.387Z,13.80
2022-10-12T17:13:40.027Z,11.43
2022-10-12T17:16:27.093Z,11.60
2022-10-12T17:18:59.144Z,12.65
2022-10-12T17:21:27.317Z,11.05
2022-10-12T17:23:58.141Z,14.65
2022-10-12T17:26:25.908Z,14.85
2022-10-12T17:28:53.172Z,12.85
2022-10-12T17:31:20.516Z,15.25
2022-10-12T17:33:47.718Z,13.93
2022-10-12T17:36:14.914Z,16.63
2022-10-12T17:38:42.109Z,13.52
2022-10-12T17:41:09.446Z,13.27
2022-10-12T17:43:36.594Z,13.18
2022-10-12T17:46:06.223Z,13.20
2022-10-12T17:48:35.072Z,12.75
2022-10-12T17:51:04.046Z,11.25
2022-10-12T17:53:32.691Z,14.00
2022-10-12T17:56:04.581Z,14.98
2022-10-12T17:58:32.059Z,17.63
2022-10-12T18:01:07.598Z,15.07
2022-10-12T18:03:34.814Z,15.18
2022-10-12T18:06:06.740Z,14.63
2022-10-12T18:08:34.342Z,15.40
2022-10-12T18:11:02.836Z,13.07
2022-10-12T18:13:30.894Z,16.13
2022-10-12T18:15:58.228Z,15.27
2022-10-12T18:18:25.781Z,16.45
2022-10-12T18:20:53.335Z,16.42
2022-10-12T18:23:20.683Z,16.02
2022-10-12T18:25:47.794Z,15.25
2022-10-12T18:28:15.680Z,17.30
2022-10-12T18:30:50.737Z,19.88
2022-10-12T18:33:18.330Z,22.95
2022-10-12T18:35:45.505Z,17.05
2022-10-12T18:38:12.642Z,14.80
2022-10-12T18:40:42.354Z,19.63
2022-10-12T18:43:10.156Z,15.85
2022-10-12T18:45:46.694Z,13.75
2022-10-12T18:48:14.524Z,16.92
2022-10-12T18:50:41.916Z,13.35
2022-10-12T18:53:09.067Z,14.52
2022-10-12T18:55:41.190Z,18.90
2022-10-12T18:58:08.607Z,14.73
2022-10-12T19:00:37.048Z,16.77
2022-10-12T19:03:04.923Z,16.83
2022-10-12T19:05:32.130Z,16.38
2022-10-12T19:07:59.320Z,15.90
2022-10-12T19:10:27.221Z,21.13
2022-10-12T19:12:54.832Z,22.02
2022-10-12T19:15:22.031Z,16.85
2022-10-12T19:17:51.514Z,15.93
2022-10-12T19:20:18.924Z,15.43
2022-10-12T19:22:47.482Z,14.23
2022-10-12T19:25:15.330Z,20.10
2022-10-12T19:27:42.381Z,20.77
2022-10-12T19:30:11.086Z,19.98
2022-10-12T19:32:38.325Z,18.48
2022-10-12T19:35:05.863Z,16.70
2022-10-12T19:37:33.568Z,17.73
2022-10-12T19:40:05.233Z,18.83
2022-10-12T19:42:34.622Z,21.70
2022-10-12T19:45:03.525Z,26.27
2022-10-12T19:47:31.597Z,19.40
2022-10-12T19:49:58.760Z,19.17
2022-10-12T19:52:25.919Z,16.77
2022-10-12T19:54:52.961Z,18.88
2022-10-12T19:57:20.190Z,19.23
2022-10-12T19:59:47.460Z,17.73
2022-10-12T20:02:15.816Z,18.98
2022-10-12T20:04:43.830Z,16.75
2022-10-12T20:07:12.732Z,23.55
2022-10-12T20:09:40.151Z,24.88
2022-10-12T20:12:07.335Z,15.95
2022-10-12T20:14:34.524Z,18.73
2022-10-12T20:17:01.672Z,19.23
2022-10-12T20:19:29.386Z,16.67
2022-10-12T20:21:56.447Z,24.20
2022-10-12T20:24:24.110Z,20.08
2022-10-12T20:26:51.387Z,16.33
2022-10-12T20:29:18.628Z,16.88
2022-10-12T20:31:45.800Z,20.50
2022-10-12T20:34:13.132Z,22.70
2022-10-12T20:36:40.238Z,23.40
2022-10-12T20:39:07.401Z,20.05
2022-10-12T20:41:34.632Z,21.95
2022-10-12T20:44:01.985Z,15.85
2022-10-12T20:46:30.810Z,22.90
2022-10-12T20:49:00.282Z,29.40
2022-10-12T20:51:30.427Z,22.42
2022-10-12T20:54:01.643Z,20.80
2022-10-12T20:56:30.916Z,16.70
2022-10-12T20:58:59.035Z,15.38
2022-10-12T21:01:26.605Z,18.65
2022-10-12T21:03:54.680Z,20.90
2022-10-12T21:06:23.630Z,21.38
2022-10-12T21:08:52.804Z,19.00
2022-10-12T21:11:21.971Z,25.15
2022-10-12T21:13:49.679Z,15.73
2022-10-12T21:16:17.631Z,20.45
2022-10-12T21:18:44.851Z,24.00
2022-10-12T21:21:18.240Z,14.27
2022-10-12T21:23:53.752Z,17.17
2022-10-12T21:26:22.033Z,16.20
2022-10-12T21:28:49.270Z,22.40
2022-10-12T21:31:16.647Z,20.52
2022-10-12T21:33:44.330Z,27.90
2022-10-12T21:36:17.428Z,20.80
2022-10-12T21:38:45.014Z,19.70
2022-10-12T21:41:13.584Z,19.60
2022-10-12T21:43:42.595Z,19.60
2022-10-12T21:46:15.080Z,21.48
2022-10-12T21:48:43.538Z,20.38
2022-10-12T21:51:11.281Z,16.27
2022-10-12T21:53:41.285Z,20.30
2022-10-12T21:56:17.831Z,21.52
2022-10-12T21:58:47.083Z,21.25
2022-10-12T22:01:16.765Z,18.77
2022-10-12T22:03:47.866Z,22.50
2022-10-12T22:06:20.320Z,21.50
2022-10-12T22:08:53.840Z,23.30
2022-10-12T22:11:24.931Z,23.52
2022-10-12T22:13:52.759Z,25.85
2022-10-12T22:16:20.556Z,21.05
2022-10-12T22:18:47.733Z,21.85
2022-10-12T22:21:17.194Z,23.00
2022-10-12T22:23:45.098Z,18.85
2022-10-12T22:26:16.346Z,20.85
2022-10-12T22:28:43.879Z,25.92
2022-10-12T22:31:12.803Z,23.60
2022-10-12T22:33:40.801Z,21.50
2022-10-12T22:36:08.959Z,20.98
2022-10-12T22:38:36.695Z,21.65
2022-10-12T22:41:06.420Z,17.55
2022-10-12T22:43:34.634Z,21.38
2022-10-12T22:46:02.465Z,25.50
2022-10-12T22:48:29.746Z,30.17
2022-10-12T22:50:57.043Z,27.20
2022-10-12T22:53:25.610Z,32.88
2022-10-12T22:56:04.672Z,21.65
2022-10-12T22:58:32.077Z,19.88
2022-10-12T23:01:07.031Z,21.98
2022-10-12T23:03:35.498Z,26.00
2022-10-12T23:06:03.206Z,21.58
2022-10-12T23:08:31.547Z,20.83
2022-10-12T23:11:06.378Z,23.90
2022-10-12T23:13:34.704Z,20.05
2022-10-12T23:16:13.256Z,25.75
2022-10-12T23:18:40.816Z,24.90
2022-10-12T23:21:10.634Z,20.77
2022-10-12T23:23:39.652Z,24.35
2022-10-12T23:26:10.461Z,21.52
2022-10-12T23:28:37.956Z,25.75
2022-10-12T23:31:06.917Z,28.45
2022-10-12T23:33:34.935Z,23.05
2022-10-12T23:36:05.554Z,28.20
2022-10-12T23:38:34.700Z,20.58
2022-10-12T23:41:02.225Z,33.60
2022-10-12T23:43:29.626Z,29.38
2022-10-12T23:45:57.203Z,27.98
2022-10-12T23:48:25.774Z,25.88
2022-10-12T23:50:53.137Z,29.48
2022-10-12T23:53:22.105Z,27.40
2022-10-12T23:55:50.172Z,26.33
2022-10-12T23:58:17.707Z,24.15
